Chinggis Khaan International Airport
ZMUB : now visible

Airfield :











YOU CAN JOIN US ON...

 
LOGIN :

Register | Disclaimer

   EN    FR    IT 

 









Legend :    VFR   Marginal VFR   IFR   Intensive IFR   Very Intensive IFR
Visi :
Ceiling :
>= 8 km
>= 3000ft
5 to 8 km
1000 to 3000 ft
1500m to 5 km
500 to 1000 ft
800 to 1500m
200 to 500 ft
< 800m
< 200 ft
Symbols :   Thunderstorms  Fog  Heavy snow  Heavy precipitations  Wind > 20 kt






- Airport Elevation : 4364 ft
- IATA code : ULN


ZMUB - Chinggis Khaan International

CURRENT METAR :
  • 171300Z 17002MPS CAVOK M28/M32 Q1026 NOSIG RMK QFE661.3 66

EXPIRED METARs :
  • 171230Z 17002MPS CAVOK M29/M33 Q1026 NOSIG RMK QFE661.6 67
  • 171200Z VRB02MPS CAVOK M29/M33 Q1027 NOSIG RMK QFE661.6 71
  • 171130Z VRB01MPS CAVOK M28/M31 Q1027 NOSIG RMK QFE661.9 70
  • 171100Z 16002MPS CAVOK M28/M32 Q1027 NOSIG RMK QFE661.9 67
  • 171030Z VRB01MPS CAVOK M26/M29 Q1027 NOSIG RMK QFE662.1 67

TAF COR TAF ZMUB
Valid from the 17 at 12:00 until the 18 at 18:00 UTC


171039Z 1712/1818 VRB02MPS 9999 SCT100 TNM33/1723Z TXM17/1807Z
BECMG 1722/1724 6000
BECMG 1804/1806 9999 NSW



MET'MAP, your aeronautical weather chart ! - Copyright ORBIFLY December 2007 - Disclaimer

ORBIFLY MET'MAP TEAM :

Programming & Development : Alexandra Zaïnal
Concept & Development : Baudouin d'Aumeries
Co-Development & Prog : Marc-Olivier Méhu
Technical & hardware support : Manuel Goepfert

Contact : metmap@orbifly.com




SOURCES & CREDITS :

   NOAA       Earth
Advisory